Time;durP1;ratioP1;P1;durP2;ratioP2;P2;SDS_P1;SDS_P2;PMS_P1;PMS_P2;Temp;Humidity;BMP_temperature;BMP_pressure;BME280_temperature;BME280_humidity;BME280_pressure;Samples;Min_cycle;Max_cycle;Signal;HPM_P1;HPM_P2
2024/01/20 00:03:07;;;;;;;7.53;3.38;;;4.90;99.90;;;;;;10300441;28;20022;-86
2024/01/20 00:08:14;;;;;;;5.57;3.65;;;4.90;99.90;;;;;;10307226;28;20023;-86
2024/01/20 00:13:14;;;;;;;6.97;3.50;;;4.90;99.90;;;;;;10308014;28;20029;-87
2024/01/20 00:18:15;;;;;;;6.68;3.13;;;4.90;99.90;;;;;;10309015;28;20042;-87
2024/01/20 00:23:15;;;;;;;6.28;3.28;;;4.90;99.90;;;;;;10305244;28;20022;-87
2024/01/20 00:28:18;;;;;;;5.20;3.45;;;4.90;99.90;;;;;;10302629;28;20042;-85
2024/01/20 00:33:18;;;;;;;6.30;3.30;;;4.90;99.90;;;;;;10303765;28;20475;-86
2024/01/20 00:38:19;;;;;;;5.60;3.50;;;4.90;99.90;;;;;;10303358;28;20234;-87
2024/01/20 00:43:19;;;;;;;5.85;3.97;;;4.90;99.90;;;;;;10299624;28;20077;-86
2024/01/20 00:48:20;;;;;;;5.40;3.45;;;4.90;99.90;;;;;;10317170;28;20019;-85
2024/01/20 00:53:20;;;;;;;5.20;3.65;;;4.90;99.90;;;;;;10320199;28;20030;-87
2024/01/20 00:58:21;;;;;;;6.43;3.88;;;4.80;99.90;;;;;;10316687;28;20066;-87
2024/01/20 01:03:22;;;;;;;8.52;4.40;;;4.90;99.90;;;;;;10307191;28;20061;-86
2024/01/20 01:08:23;;;;;;;6.60;4.13;;;4.80;99.90;;;;;;10309145;28;20030;-87
2024/01/20 01:13:23;;;;;;;9.55;4.65;;;4.80;99.90;;;;;;10315851;28;20499;-86
2024/01/20 01:18:24;;;;;;;8.52;4.55;;;6.20;99.90;;;;;;10304269;28;20046;-86
2024/01/20 01:23:25;;;;;;;8.15;4.72;;;4.80;99.90;;;;;;10314750;28;20025;-86
2024/01/20 01:28:25;;;;;;;7.38;4.65;;;4.80;99.90;;;;;;10306905;28;20031;-86
2024/01/20 01:33:26;;;;;;;9.38;4.82;;;4.80;99.90;;;;;;10316285;28;20038;-86
2024/01/20 01:38:26;;;;;;;8.45;5.28;;;4.80;99.90;;;;;;10311394;28;20068;-86
2024/01/20 01:43:27;;;;;;;7.78;4.78;;;4.80;99.90;;;;;;10313831;28;20038;-85
2024/01/20 01:48:28;;;;;;;9.15;5.15;;;4.80;99.90;;;;;;10315099;28;20085;-86
2024/01/20 01:53:29;;;;;;;10.13;5.47;;;4.80;99.90;;;;;;10310444;28;20018;-87
2024/01/20 01:58:29;;;;;;;9.90;5.30;;;4.80;99.90;;;;;;10313528;28;20051;-86
2024/01/20 02:03:30;;;;;;;9.23;5.22;;;4.80;99.90;;;;;;10308485;28;20011;-87
2024/01/20 02:08:31;;;;;;;8.32;5.10;;;4.80;99.90;;;;;;10302060;28;20811;-86
2024/01/20 02:13:33;;;;;;;8.43;5.50;;;6.20;99.90;;;;;;10302855;28;20026;-86
2024/01/20 02:18:33;;;;;;;10.10;5.80;;;5.40;99.90;;;;;;10314548;28;20038;-86
2024/01/20 02:23:41;;;;;;;12.40;6.45;;;4.70;99.90;;;;;;10303421;28;20182;-87
2024/01/20 02:28:41;;;;;;;9.32;5.80;;;4.70;99.90;;;;;;10308948;28;20041;-85
2024/01/20 02:33:42;;;;;;;10.80;5.70;;;4.70;99.90;;;;;;10316620;28;20019;-86
2024/01/20 02:38:42;;;;;;;10.85;6.30;;;4.70;99.90;;;;;;10309083;28;20113;-86
2024/01/20 02:43:43;;;;;;;10.07;6.20;;;4.70;99.90;;;;;;10309953;28;20018;-87
2024/01/20 02:48:44;;;;;;;10.02;6.32;;;4.70;99.90;;;;;;10315387;28;20477;-86
2024/01/20 02:53:44;;;;;;;10.73;6.60;;;4.70;99.90;;;;;;10303659;28;20561;-86
2024/01/20 02:58:45;;;;;;;11.82;6.70;;;4.90;99.90;;;;;;10304281;28;20026;-86
2024/01/20 03:03:45;;;;;;;10.48;6.57;;;4.70;99.90;;;;;;10306400;28;20030;-86
2024/01/20 03:08:46;;;;;;;10.23;6.25;;;4.70;99.90;;;;;;10298336;28;20010;-86
2024/01/20 03:13:47;;;;;;;9.35;5.85;;;4.70;99.90;;;;;;10304659;28;20065;-87
2024/01/20 03:18:47;;;;;;;11.05;6.13;;;5.50;99.90;;;;;;10305522;28;20032;-86
2024/01/20 03:23:48;;;;;;;10.95;6.35;;;4.60;99.90;;;;;;10304570;28;20038;-87
2024/01/20 03:28:48;;;;;;;12.80;6.80;;;4.60;99.90;;;;;;10305170;28;20125;-86
2024/01/20 03:33:49;;;;;;;10.90;6.00;;;4.60;99.90;;;;;;10302805;28;20046;-87
2024/01/20 03:38:51;;;;;;;14.60;7.75;;;4.60;99.90;;;;;;10304750;28;20110;-86
2024/01/20 03:43:51;;;;;;;13.25;6.57;;;4.60;99.90;;;;;;10303740;28;20040;-86
2024/01/20 03:48:52;;;;;;;13.57;6.38;;;4.60;99.90;;;;;;10300497;28;20033;-87
2024/01/20 03:53:53;;;;;;;14.25;7.53;;;4.60;99.90;;;;;;10305396;28;20022;-86
2024/01/20 03:58:54;;;;;;;15.77;7.43;;;4.60;99.90;;;;;;10307112;28;20023;-88
2024/01/20 04:03:55;;;;;;;14.57;7.28;;;4.60;99.90;;;;;;10303247;28;20026;-86
2024/01/20 04:08:55;;;;;;;14.25;7.22;;;4.60;99.90;;;;;;10308470;28;20557;-87
2024/01/20 04:13:56;;;;;;;13.75;7.15;;;4.60;99.90;;;;;;10303929;28;20026;-86
2024/01/20 04:18:56;;;;;;;15.45;7.95;;;4.60;99.90;;;;;;10303649;28;20038;-87
2024/01/20 04:23:57;;;;;;;15.43;6.85;;;4.60;99.90;;;;;;10303474;28;20062;-86
2024/01/20 04:28:57;;;;;;;15.57;7.47;;;4.50;99.90;;;;;;10307454;28;20483;-86
2024/01/20 04:33:58;;;;;;;14.80;7.38;;;4.50;99.90;;;;;;10306623;28;20023;-86
2024/01/20 04:38:59;;;;;;;18.17;8.40;;;4.50;99.90;;;;;;10313105;28;20031;-86
2024/01/20 04:44:00;;;;;;;15.45;7.93;;;4.50;99.90;;;;;;10312446;28;20110;-86
2024/01/20 04:49:00;;;;;;;14.40;7.22;;;4.50;99.90;;;;;;10309341;28;20057;-87
2024/01/20 04:54:01;;;;;;;19.63;8.00;;;4.50;99.90;;;;;;10302866;28;20419;-87
2024/01/20 04:59:01;;;;;;;18.02;8.10;;;4.50;99.90;;;;;;10299621;28;20053;-86
2024/01/20 05:04:03;;;;;;;14.80;7.20;;;4.50;99.90;;;;;;10301300;28;20082;-87
2024/01/20 05:09:04;;;;;;;21.65;8.43;;;4.50;99.90;;;;;;10310706;28;20038;-86
2024/01/20 05:14:06;;;;;;;17.13;8.10;;;4.50;99.90;;;;;;10303824;28;20114;-86
2024/01/20 05:19:06;;;;;;;18.65;8.00;;;4.40;99.90;;;;;;10303230;28;20026;-87
2024/01/20 05:24:07;;;;;;;18.08;8.40;;;4.40;99.90;;;;;;10301183;28;20026;-86
2024/01/20 05:29:08;;;;;;;18.42;7.80;;;4.40;99.90;;;;;;10310225;28;20391;-85
2024/01/20 05:34:08;;;;;;;16.70;8.23;;;4.40;99.90;;;;;;10310519;28;20033;-86
2024/01/20 05:39:09;;;;;;;18.10;8.18;;;4.40;99.90;;;;;;10311323;28;20494;-86
2024/01/20 05:44:09;;;;;;;22.40;9.30;;;4.40;99.90;;;;;;10308035;28;20058;-86
2024/01/20 05:49:10;;;;;;;16.35;7.97;;;4.40;99.90;;;;;;10312071;28;20493;-85
2024/01/20 05:54:11;;;;;;;19.13;8.27;;;4.40;99.90;;;;;;10315316;28;20030;-86
2024/01/20 05:59:12;;;;;;;21.33;8.25;;;4.40;99.90;;;;;;10309349;28;20125;-87
2024/01/20 06:04:13;;;;;;;17.65;8.35;;;4.40;99.90;;;;;;10316523;28;20044;-87
2024/01/20 06:09:15;;;;;;;20.20;8.85;;;4.40;99.90;;;;;;10307405;28;20029;-86
2024/01/20 06:14:16;;;;;;;17.42;7.88;;;4.40;99.90;;;;;;10303909;28;20237;-87
2024/01/20 06:19:16;;;;;;;17.13;7.65;;;4.40;99.90;;;;;;10311430;28;20250;-86
2024/01/20 06:24:17;;;;;;;19.10;8.45;;;4.40;99.90;;;;;;10303526;28;20026;-85
2024/01/20 06:29:17;;;;;;;20.63;8.30;;;4.30;99.90;;;;;;10304362;28;20031;-88
2024/01/20 06:34:18;;;;;;;19.80;8.55;;;4.40;99.90;;;;;;10301736;28;20031;-86
2024/01/20 06:39:19;;;;;;;17.30;8.43;;;4.30;99.90;;;;;;10308047;28;20185;-87
2024/01/20 06:44:22;;;;;;;20.70;8.90;;;4.30;99.90;;;;;;10303326;28;20115;-85
2024/01/20 06:49:22;;;;;;;19.80;8.80;;;4.30;99.90;;;;;;10308981;28;20027;-86
2024/01/20 06:54:23;;;;;;;18.17;8.05;;;4.30;99.90;;;;;;10312003;28;20034;-87
2024/01/20 06:59:23;;;;;;;17.15;7.40;;;4.40;99.90;;;;;;10308638;28;20026;-87
2024/01/20 07:04:24;;;;;;;17.85;8.02;;;4.40;99.90;;;;;;10298183;28;20034;-86
2024/01/20 07:09:25;;;;;;;22.85;8.32;;;4.40;99.90;;;;;;10305191;28;20329;-87
2024/01/20 07:14:26;;;;;;;15.73;7.68;;;4.40;99.90;;;;;;10312581;28;20031;-87
2024/01/20 07:19:26;;;;;;;18.23;8.18;;;4.40;99.90;;;;;;10304672;28;20038;-90
2024/01/20 07:24:27;;;;;;;17.63;7.93;;;4.30;99.90;;;;;;10307997;28;20040;-89
2024/01/20 07:29:28;;;;;;;15.50;7.30;;;4.40;99.90;;;;;;10308497;28;20476;-88
2024/01/20 07:34:28;;;;;;;17.60;7.93;;;4.30;99.90;;;;;;10302281;28;20093;-88
2024/01/20 07:39:29;;;;;;;18.15;8.10;;;4.30;99.90;;;;;;10304130;28;20041;-88
2024/01/20 07:44:30;;;;;;;17.17;7.03;;;5.00;99.90;;;;;;10313046;28;20649;-87
2024/01/20 07:49:31;;;;;;;18.17;7.88;;;4.40;99.90;;;;;;10306308;28;20032;-88
2024/01/20 07:54:31;;;;;;;16.13;7.13;;;4.40;99.90;;;;;;10304794;28;20031;-88
2024/01/20 07:59:32;;;;;;;18.95;7.93;;;4.40;99.90;;;;;;10309853;28;20034;-88
2024/01/20 08:04:32;;;;;;;20.85;7.95;;;5.90;99.90;;;;;;10310967;28;20393;-87
2024/01/20 08:09:33;;;;;;;18.05;7.38;;;4.40;99.90;;;;;;10308528;28;20034;-87
2024/01/20 08:14:34;;;;;;;17.08;7.47;;;4.50;99.90;;;;;;10305178;28;20157;-88
2024/01/20 08:19:34;;;;;;;14.70;7.47;;;5.10;99.90;;;;;;10315594;28;20077;-88
2024/01/20 08:24:35;;;;;;;14.27;6.32;;;4.40;99.90;;;;;;10306839;28;20102;-88
2024/01/20 08:29:36;;;;;;;16.83;7.63;;;4.40;99.90;;;;;;10310113;28;20015;-88
2024/01/20 08:34:36;;;;;;;18.40;7.63;;;4.40;99.90;;;;;;10307197;28;20046;-87
2024/01/20 08:39:37;;;;;;;17.67;7.55;;;4.50;99.90;;;;;;10307723;28;20117;-89
2024/01/20 08:44:38;;;;;;;17.45;7.18;;;4.50;99.90;;;;;;10310797;28;20401;-87
2024/01/20 08:49:39;;;;;;;16.77;7.00;;;4.50;99.90;;;;;;10310704;28;20399;-88
2024/01/20 08:54:39;;;;;;;15.57;6.85;;;4.50;99.90;;;;;;10305579;28;20035;-90
2024/01/20 08:59:40;;;;;;;17.15;7.45;;;4.50;99.90;;;;;;10309324;28;20029;-88
2024/01/20 09:04:41;;;;;;;20.25;7.03;;;4.60;99.90;;;;;;10307154;28;20497;-89
2024/01/20 09:09:41;;;;;;;15.57;6.90;;;4.30;99.90;;;;;;10314412;28;20105;-88
2024/01/20 09:14:42;;;;;;;18.17;7.30;;;4.70;99.90;;;;;;10312786;28;20054;-87
2024/01/20 09:19:42;;;;;;;16.83;7.32;;;4.70;99.90;;;;;;10313931;28;20023;-88
2024/01/20 09:24:43;;;;;;;20.80;7.70;;;4.80;99.90;;;;;;10321024;28;20054;-88
2024/01/20 09:29:44;;;;;;;17.00;7.80;;;6.10;99.90;;;;;;10316618;28;20014;-86
2024/01/20 09:34:44;;;;;;;16.45;6.93;;;4.80;99.90;;;;;;10313128;28;20039;-88
2024/01/20 09:39:45;;;;;;;17.35;7.10;;;4.80;99.90;;;;;;10315920;28;20383;-87
2024/01/20 09:44:46;;;;;;;16.17;6.85;;;4.70;99.90;;;;;;10313251;28;20154;-87
2024/01/20 09:49:47;;;;;;;16.55;7.10;;;4.70;99.90;;;;;;10317159;28;20027;-87
2024/01/20 09:54:57;;;;;;;18.33;7.70;;;4.70;99.90;;;;;;10306377;28;20030;-87
2024/01/20 10:00:00;;;;;;;16.30;7.03;;;4.70;99.90;;;;;;10314648;28;20035;-86
2024/01/20 10:05:05;;;;;;;15.95;6.53;;;6.00;99.90;;;;;;10312547;28;20737;-87
2024/01/20 10:10:06;;;;;;;17.83;6.72;;;4.80;99.90;;;;;;10308235;28;20033;-86
2024/01/20 10:15:07;;;;;;;17.10;7.47;;;5.10;99.90;;;;;;10312360;28;20064;-88
2024/01/20 10:20:08;;;;;;;14.05;6.03;;;5.30;99.90;;;;;;10314989;28;20484;-90
2024/01/20 10:25:09;;;;;;;14.35;6.72;;;5.20;99.80;;;;;;10315507;28;20025;-89
2024/01/20 10:30:10;;;;;;;15.90;6.20;;;6.40;99.90;;;;;;10307164;28;20038;-89
2024/01/20 10:35:11;;;;;;;14.80;7.07;;;5.10;99.90;;;;;;10312991;28;20118;-89
2024/01/20 10:40:15;;;;;;;16.42;6.47;;;5.70;99.90;;;;;;10308547;28;20524;-89
2024/01/20 10:45:17;;;;;;;14.05;5.90;;;6.30;99.90;;;;;;10307831;28;20979;-89
2024/01/20 10:50:20;;;;;;;16.52;7.13;;;6.30;99.90;;;;;;10314377;28;20029;-88
2024/01/20 10:55:22;;;;;;;16.60;6.90;;;5.00;99.90;;;;;;10310295;28;20546;-90
2024/01/20 11:00:24;;;;;;;17.27;6.78;;;6.30;99.90;;;;;;10308871;28;20704;-90
2024/01/20 11:05:26;;;;;;;16.70;6.85;;;5.00;99.80;;;;;;10305947;28;20028;-89
2024/01/20 11:10:26;;;;;;;16.65;6.55;;;5.30;99.90;;;;;;10316471;28;20026;-91
2024/01/20 11:15:31;;;;;;;15.10;6.60;;;4.00;99.90;;;;;;10307262;28;20406;-91
2024/01/20 11:20:32;;;;;;;16.90;6.53;;;4.90;99.90;;;;;;10314677;28;20022;-90
2024/01/20 11:25:35;;;;;;;14.48;6.25;;;6.20;99.90;;;;;;10306647;28;20022;-89
2024/01/20 11:30:36;;;;;;;18.10;6.80;;;6.20;99.90;;;;;;10313824;28;20031;-89
2024/01/20 11:35:37;;;;;;;14.55;6.10;;;4.90;99.90;;;;;;10309383;28;20022;-90
2024/01/20 11:40:38;;;;;;;16.10;7.05;;;5.00;99.90;;;;;;10310548;28;20418;-90
2024/01/20 11:45:40;;;;;;;13.05;5.78;;;5.90;99.90;;;;;;10313660;28;20490;-89
2024/01/20 11:50:41;;;;;;;16.98;6.53;;;4.00;99.80;;;;;;10303118;28;20026;-90
2024/01/20 11:55:59;;;;;;;14.93;7.03;;;5.00;99.90;;;;;;10309135;28;20026;-92
2024/01/20 12:01:02;;;;;;;15.90;6.22;;;5.10;99.90;;;;;;10302261;28;20069;-90
2024/01/20 12:06:10;;;;;;;13.80;5.57;;;5.00;99.90;;;;;;10303793;28;20031;-91
2024/01/20 12:11:22;;;;;;;13.07;5.80;;;5.00;99.90;;;;;;10313804;28;20426;-93
2024/01/20 12:16:23;;;;;;;13.70;5.90;;;5.50;99.90;;;;;;10310247;28;20034;-91
2024/01/20 12:21:23;;;;;;;15.07;6.68;;;5.70;99.90;;;;;;10304931;28;20430;-91
2024/01/20 12:26:24;;;;;;;14.77;6.20;;;5.00;99.80;;;;;;10302709;28;20030;-92
2024/01/20 12:31:26;;;;;;;15.30;6.00;;;4.80;99.90;;;;;;10309150;28;20026;-91
2024/01/20 12:36:27;;;;;;;14.32;6.10;;;5.10;99.90;;;;;;10307754;28;20501;-90
2024/01/20 12:41:28;;;;;;;15.18;6.50;;;5.10;99.90;;;;;;10313599;28;20046;-88
2024/01/20 12:46:28;;;;;;;16.13;6.30;;;5.20;99.90;;;;;;10308558;28;20030;-89
2024/01/20 12:51:30;;;;;;;14.80;6.22;;;5.30;99.90;;;;;;10305850;28;20023;-92
2024/01/20 12:56:31;;;;;;;14.50;6.03;;;5.30;99.90;;;;;;10317192;28;20042;-90
2024/01/20 13:01:32;;;;;;;13.98;5.95;;;5.30;99.90;;;;;;10312971;28;20084;-90
2024/01/20 13:06:33;;;;;;;11.73;5.60;;;6.30;99.90;;;;;;10318004;28;20035;-90
2024/01/20 13:11:36;;;;;;;15.77;6.60;;;5.30;99.90;;;;;;10313317;28;20403;-90
2024/01/20 13:16:37;;;;;;;16.13;6.50;;;6.50;99.90;;;;;;10311565;28;20092;-90
2024/01/20 13:21:37;;;;;;;14.82;6.13;;;5.30;99.70;;;;;;10310190;28;20451;-90
2024/01/20 13:26:38;;;;;;;13.57;5.55;;;6.30;99.90;;;;;;10313666;28;20119;-90
2024/01/20 13:31:39;;;;;;;14.20;5.65;;;6.10;99.90;;;;;;10314952;28;20022;-90
2024/01/20 13:36:39;;;;;;;12.00;5.63;;;5.40;99.90;;;;;;10315667;28;20030;-90
2024/01/20 13:41:40;;;;;;;15.13;6.28;;;5.30;99.90;;;;;;10309407;28;20589;-90
2024/01/20 13:46:41;;;;;;;13.60;6.20;;;6.50;99.90;;;;;;10306185;28;20026;-90
2024/01/20 13:51:45;;;;;;;13.23;6.15;;;5.20;99.90;;;;;;10315464;28;20030;-90
2024/01/20 13:56:49;;;;;;;13.32;5.90;;;6.20;99.90;;;;;;10303330;28;20026;-89
2024/01/20 14:01:52;;;;;;;13.10;5.63;;;5.30;99.90;;;;;;10311047;28;20050;-89
2024/01/20 14:06:52;;;;;;;13.10;5.43;;;6.70;99.90;;;;;;10310186;28;20069;-90
2024/01/20 14:11:53;;;;;;;13.77;5.85;;;5.70;99.90;;;;;;10317296;28;20034;-90
2024/01/20 14:17:00;;;;;;;11.45;5.53;;;6.50;99.90;;;;;;10314235;28;20026;-90
2024/01/20 14:22:01;;;;;;;12.77;5.55;;;4.40;99.80;;;;;;10312361;28;20073;-88
2024/01/20 14:27:01;;;;;;;9.45;4.43;;;5.10;99.90;;;;;;10308692;28;20447;-89
2024/01/20 14:32:03;;;;;;;9.50;4.78;;;5.30;99.90;;;;;;10307341;28;20031;-90
2024/01/20 14:37:04;;;;;;;11.05;4.97;;;5.40;99.90;;;;;;10313686;28;20032;-89
2024/01/20 14:42:05;;;;;;;13.32;4.53;;;6.80;99.90;;;;;;10308674;28;20395;-89
2024/01/20 14:47:06;;;;;;;11.43;4.63;;;6.60;99.90;;;;;;10310804;28;20038;-88
2024/01/20 14:52:06;;;;;;;12.43;5.13;;;5.40;99.90;;;;;;10303151;28;20034;-89
2024/01/20 14:57:07;;;;;;;10.77;4.65;;;5.80;99.90;;;;;;10308985;28;20018;-88
2024/01/20 15:02:08;;;;;;;12.43;4.65;;;6.50;99.90;;;;;;10308270;28;20415;-88
2024/01/20 15:07:08;;;;;;;11.43;4.93;;;6.30;99.90;;;;;;10307814;28;20036;-87
2024/01/20 15:12:09;;;;;;;11.45;4.45;;;5.30;99.90;;;;;;10308974;28;20026;-88
2024/01/20 15:17:12;;;;;;;11.25;4.43;;;6.60;99.90;;;;;;10307788;28;20050;-86
2024/01/20 15:22:12;;;;;;;11.00;4.55;;;5.40;99.90;;;;;;10324259;28;20097;-86
2024/01/20 15:27:13;;;;;;;11.45;5.22;;;5.30;99.90;;;;;;10313776;28;20181;-88
2024/01/20 15:32:14;;;;;;;9.05;4.15;;;5.30;99.90;;;;;;10308747;28;20034;-88
2024/01/20 15:37:14;;;;;;;10.05;4.47;;;6.00;99.90;;;;;;10302064;28;20072;-85
2024/01/20 15:42:17;;;;;;;11.02;4.72;;;5.20;99.90;;;;;;10305845;28;20375;-87
2024/01/20 15:47:17;;;;;;;11.35;4.35;;;5.80;99.90;;;;;;10307456;28;20041;-89
2024/01/20 15:52:18;;;;;;;11.23;4.22;;;5.20;99.90;;;;;;10311878;28;20031;-88
2024/01/20 15:57:18;;;;;;;9.60;3.90;;;5.10;99.90;;;;;;10316247;28;20030;-87
2024/01/20 16:02:19;;;;;;;10.85;4.40;;;5.10;99.90;;;;;;10308973;28;20041;-88
2024/01/20 16:07:20;;;;;;;10.98;4.22;;;5.10;99.90;;;;;;10305803;28;20430;-89
2024/01/20 16:12:20;;;;;;;11.18;5.47;;;5.10;99.90;;;;;;10308885;28;20072;-89
2024/01/20 16:17:21;;;;;;;9.02;4.60;;;6.40;99.90;;;;;;10304338;28;20019;-89
2024/01/20 16:22:22;;;;;;;10.98;5.18;;;6.20;99.90;;;;;;10310786;28;20731;-90
2024/01/20 16:27:22;;;;;;;10.18;4.80;;;6.20;99.90;;;;;;10307957;28;20038;-87
2024/01/20 16:32:23;;;;;;;11.88;5.68;;;5.00;99.90;;;;;;10300614;28;20030;-88
2024/01/20 16:37:24;;;;;;;11.02;5.60;;;5.00;99.90;;;;;;10306051;28;20027;-86
2024/01/20 16:42:24;;;;;;;10.55;4.60;;;5.00;99.90;;;;;;10309242;28;20122;-89
2024/01/20 16:47:25;;;;;;;9.05;4.40;;;5.10;99.90;;;;;;10307270;28;20037;-89
2024/01/20 16:52:26;;;;;;;13.18;5.05;;;5.00;99.90;;;;;;10308169;28;20030;-88
2024/01/20 16:57:26;;;;;;;12.43;5.82;;;6.20;99.90;;;;;;10300242;28;20034;-89
2024/01/20 17:02:27;;;;;;;16.10;5.47;;;6.00;99.90;;;;;;10308237;28;20040;-90
2024/01/20 17:07:28;;;;;;;13.77;5.43;;;4.90;99.90;;;;;;10307687;28;20483;-89
2024/01/20 17:12:28;;;;;;;21.63;8.20;;;4.90;99.90;;;;;;10309659;28;20042;-87
2024/01/20 17:17:29;;;;;;;17.85;7.13;;;4.80;99.90;;;;;;10312555;28;20030;-89
2024/01/20 17:22:30;;;;;;;16.85;7.13;;;4.80;99.90;;;;;;10311200;28;20026;-88
2024/01/20 17:27:30;;;;;;;16.77;6.95;;;4.80;99.90;;;;;;10308233;28;20125;-89
2024/01/20 17:32:31;;;;;;;19.92;8.05;;;4.80;99.90;;;;;;10319001;28;20259;-89
2024/01/20 17:37:32;;;;;;;18.90;6.93;;;4.80;99.90;;;;;;10307021;28;20030;-89
2024/01/20 17:42:33;;;;;;;16.17;7.50;;;4.90;99.90;;;;;;10307633;28;20092;-87
2024/01/20 17:47:34;;;;;;;18.45;7.15;;;4.90;99.90;;;;;;10309826;28;20553;-88
2024/01/20 17:52:34;;;;;;;15.45;7.22;;;4.90;99.90;;;;;;10309951;28;20034;-89
2024/01/20 17:57:35;;;;;;;16.20;7.18;;;4.80;99.90;;;;;;10312984;28;20027;-89
2024/01/20 18:02:36;;;;;;;16.60;7.03;;;4.90;99.90;;;;;;10316254;28;20027;-87
2024/01/20 18:07:36;;;;;;;16.25;6.60;;;4.90;99.90;;;;;;10312185;28;20038;-89
2024/01/20 18:12:39;;;;;;;16.52;7.25;;;4.80;99.90;;;;;;10311300;28;20022;-87
2024/01/20 18:17:40;;;;;;;22.10;8.75;;;4.90;99.90;;;;;;10314138;28;20023;-88
2024/01/20 18:22:40;;;;;;;20.40;8.02;;;5.10;99.90;;;;;;10307736;28;20537;-87
2024/01/20 18:27:41;;;;;;;19.50;8.35;;;5.60;99.90;;;;;;10310776;28;20033;-87
2024/01/20 18:32:45;;;;;;;16.50;8.15;;;5.60;99.90;;;;;;10313103;28;20019;-87
2024/01/20 18:37:47;;;;;;;20.02;8.75;;;5.50;99.90;;;;;;10309206;28;20041;-89
2024/01/20 18:42:49;;;;;;;23.20;7.95;;;6.50;99.90;;;;;;10306297;28;20019;-90
2024/01/20 18:47:49;;;;;;;19.08;7.55;;;5.30;99.90;;;;;;10306112;28;20034;-90
2024/01/20 18:52:50;;;;;;;16.35;7.40;;;5.30;99.90;;;;;;10314648;28;20026;-90
2024/01/20 18:57:51;;;;;;;16.35;7.45;;;5.20;99.90;;;;;;10308665;28;20033;-91
2024/01/20 19:02:51;;;;;;;14.77;7.43;;;5.40;99.90;;;;;;10312719;28;20046;-91
2024/01/20 19:07:52;;;;;;;18.75;7.28;;;4.90;99.90;;;;;;10296950;28;20034;-89
2024/01/20 19:12:53;;;;;;;16.05;6.53;;;5.50;99.90;;;;;;10313402;28;20037;-90
2024/01/20 19:17:54;;;;;;;20.00;7.35;;;5.60;99.90;;;;;;10306249;28;20037;-89
2024/01/20 19:22:54;;;;;;;17.60;6.38;;;5.40;99.90;;;;;;10305409;28;20010;-90
2024/01/20 19:27:55;;;;;;;17.88;6.47;;;4.80;99.90;;;;;;10312445;28;21542;-90
2024/01/20 19:32:55;;;;;;;16.52;6.57;;;4.80;99.90;;;;;;10311530;28;20109;-89
2024/01/20 19:38:01;;;;;;;15.02;5.93;;;4.70;99.90;;;;;;10315282;28;20839;-90
2024/01/20 19:43:03;;;;;;;14.82;6.43;;;;;;;;;;10312845;28;20546;-90
2024/01/20 19:48:04;;;;;;;16.48;6.03;;;4.80;99.90;;;;;;10308871;28;20117;-90
2024/01/20 19:53:05;;;;;;;11.73;5.22;;;4.80;99.90;;;;;;10311976;28;20124;-90
2024/01/20 19:58:06;;;;;;;15.35;6.00;;;5.60;99.90;;;;;;10308487;28;20030;-90
2024/01/20 20:03:07;;;;;;;14.38;6.25;;;5.90;99.90;;;;;;10312854;28;20026;-90
2024/01/20 20:08:08;;;;;;;13.55;6.25;;;6.30;99.90;;;;;;10313226;28;20018;-89
2024/01/20 20:13:08;;;;;;;14.20;5.97;;;6.00;99.90;;;;;;10306434;28;20490;-90
2024/01/20 20:18:10;;;;;;;15.98;6.65;;;5.40;99.90;;;;;;10307852;28;20030;-90
2024/01/20 20:23:10;;;;;;;13.88;5.85;;;4.70;99.90;;;;;;10305163;28;20026;-88
2024/01/20 20:28:11;;;;;;;14.32;5.40;;;4.60;99.90;;;;;;10305401;28;20526;-89
2024/01/20 20:33:12;;;;;;;12.02;5.25;;;5.80;99.90;;;;;;10308369;28;20213;-90
2024/01/20 20:38:12;;;;;;;13.80;6.05;;;6.00;99.90;;;;;;10308652;28;20030;-89
2024/01/20 20:43:13;;;;;;;11.90;5.78;;;4.60;99.90;;;;;;10309239;28;20014;-90
2024/01/20 20:48:15;;;;;;;11.68;5.32;;;5.10;99.90;;;;;;10305060;28;20022;-90
2024/01/20 20:53:15;;;;;;;13.25;6.15;;;4.80;99.90;;;;;;10303102;28;20022;-90
2024/01/20 20:58:18;;;;;;;12.15;5.80;;;4.50;99.90;;;;;;10310843;28;20423;-90
2024/01/20 21:03:22;;;;;;;11.60;5.03;;;4.60;99.90;;;;;;10308319;28;20033;-89
2024/01/20 21:08:24;;;;;;;11.73;5.00;;;4.60;99.80;;;;;;10314223;28;20553;-91
2024/01/20 21:13:25;;;;;;;11.80;5.97;;;4.40;99.70;;;;;;10310350;28;20404;-90
2024/01/20 21:18:26;;;;;;;10.02;5.03;;;6.10;99.90;;;;;;10313715;28;20031;-90
2024/01/20 21:23:26;;;;;;;9.98;4.63;;;4.50;99.70;;;;;;10310482;28;20015;-90
2024/01/20 21:28:27;;;;;;;9.88;4.90;;;4.50;99.70;;;;;;10317347;28;20501;-90
2024/01/20 21:33:28;;;;;;;11.20;4.90;;;4.50;99.90;;;;;;10307351;28;20018;-90
2024/01/20 21:38:28;;;;;;;11.60;5.22;;;5.30;99.90;;;;;;10310331;28;20030;-91
2024/01/20 21:43:29;;;;;;;8.93;4.45;;;4.50;99.70;;;;;;10306539;28;20471;-91
2024/01/20 21:48:30;;;;;;;9.27;4.55;;;5.30;99.80;;;;;;10312157;28;20059;-91
2024/01/20 21:53:34;;;;;;;9.68;5.03;;;5.10;99.80;;;;;;10303008;28;20030;-90
2024/01/20 21:58:34;;;;;;;9.55;4.63;;;5.00;99.70;;;;;;10311346;28;20035;-88
2024/01/20 22:03:36;;;;;;;12.52;5.68;;;4.70;99.50;;;;;;10327559;28;20014;-90
2024/01/20 22:08:37;;;;;;;9.85;5.18;;;;;;;;;;10316283;28;20118;-90
2024/01/20 22:13:38;;;;;;;11.90;5.68;;;4.40;99.20;;;;;;10313782;28;20859;-90
2024/01/20 22:18:38;;;;;;;8.63;4.10;;;5.20;99.60;;;;;;10307127;28;20130;-90
2024/01/20 22:23:40;;;;;;;9.52;4.70;;;4.90;99.60;;;;;;10309056;28;20119;-90
2024/01/20 22:28:41;;;;;;;11.32;5.55;;;5.00;99.50;;;;;;10314691;28;20063;-88
2024/01/20 22:33:42;;;;;;;9.90;4.95;;;4.40;99.40;;;;;;10309796;28;20157;-88
2024/01/20 22:38:45;;;;;;;9.25;4.35;;;5.00;99.50;;;;;;10303502;28;20018;-89
2024/01/20 22:43:46;;;;;;;8.60;3.90;;;5.30;99.60;;;;;;10308669;28;20603;-90
2024/01/20 22:48:47;;;;;;;9.27;4.60;;;;;;;;;;10308409;28;20023;-90
2024/01/20 22:53:48;;;;;;;10.60;4.90;;;4.60;99.10;;;;;;10313831;28;20384;-90
2024/01/20 22:58:48;;;;;;;11.18;4.85;;;5.80;99.60;;;;;;10309894;28;20026;-90
2024/01/20 23:03:49;;;;;;;8.05;4.18;;;;;;;;;;10311494;28;20034;-91
2024/01/20 23:08:51;;;;;;;7.82;4.15;;;4.50;99.00;;;;;;10309793;28;20421;-90
2024/01/20 23:13:51;;;;;;;9.32;3.92;;;4.30;99.30;;;;;;10306673;28;20438;-89
2024/01/20 23:18:53;;;;;;;10.23;4.38;;;5.70;99.60;;;;;;10307581;28;20034;-91
2024/01/20 23:23:54;;;;;;;10.93;4.55;;;6.00;99.60;;;;;;10301096;28;20089;-88
2024/01/20 23:28:55;;;;;;;9.45;4.72;;;4.70;99.40;;;;;;10298964;28;20121;-91
2024/01/20 23:33:55;;;;;;;9.45;4.50;;;5.10;99.60;;;;;;10300310;28;20626;-90
2024/01/20 23:38:56;;;;;;;10.68;4.97;;;5.40;99.60;;;;;;10304328;28;20117;-89
2024/01/20 23:43:57;;;;;;;9.25;4.80;;;5.60;99.50;;;;;;10310907;28;20038;-90
2024/01/20 23:48:57;;;;;;;11.70;5.10;;;5.30;99.40;;;;;;10309192;28;20030;-89
2024/01/20 23:53:58;;;;;;;9.30;4.82;;;3.80;99.10;;;;;;10307184;28;20040;-88
2024/01/20 23:58:59;;;;;;;10.93;5.57;;;5.10;99.30;;;;;;10308575;28;20030;-89
